sensor_id;sensor_type;location;lat;lon;timestamp;temperature;humidity
15384;DHT22;7790;53.022;12.968;2022-08-11T00:00:51;21.80;49.20
15384;DHT22;7790;53.022;12.968;2022-08-11T00:04:54;21.80;49.20
15384;DHT22;7790;53.022;12.968;2022-08-11T00:08:55;21.80;49.10
15384;DHT22;7790;53.022;12.968;2022-08-11T00:13:00;21.80;49.10
15384;DHT22;7790;53.022;12.968;2022-08-11T00:17:12;21.80;49.20
15384;DHT22;7790;53.022;12.968;2022-08-11T00:21:15;21.80;49.40
15384;DHT22;7790;53.022;12.968;2022-08-11T00:25:18;21.80;49.20
15384;DHT22;7790;53.022;12.968;2022-08-11T00:29:20;21.80;49.10
15384;DHT22;7790;53.022;12.968;2022-08-11T00:33:25;21.70;49.10
15384;DHT22;7790;53.022;12.968;2022-08-11T00:37:31;21.70;49.60
15384;DHT22;7790;53.022;12.968;2022-08-11T00:46:15;21.70;48.90
15384;DHT22;7790;53.022;12.968;2022-08-11T01:29:23;21.50;48.80
15384;DHT22;7790;53.022;12.968;2022-08-11T01:47:32;21.40;49.30
15384;DHT22;7790;53.022;12.968;2022-08-11T01:52:12;21.40;49.40
15384;DHT22;7790;53.022;12.968;2022-08-11T01:56:43;21.40;49.30
15384;DHT22;7790;53.022;12.968;2022-08-11T02:01:05;21.40;49.40
15384;DHT22;7790;53.022;12.968;2022-08-11T02:05:39;21.50;49.30
15384;DHT22;7790;53.022;12.968;2022-08-11T02:19:21;21.50;49.10
15384;DHT22;7790;53.022;12.968;2022-08-11T02:24:02;21.40;49.10
15384;DHT22;7790;53.022;12.968;2022-08-11T02:28:50;21.40;49.20
15384;DHT22;7790;53.022;12.968;2022-08-11T02:32:50;21.30;49.20
15384;DHT22;7790;53.022;12.968;2022-08-11T02:37:21;21.40;49.10
15384;DHT22;7790;53.022;12.968;2022-08-11T02:46:27;21.40;48.80
15384;DHT22;7790;53.022;12.968;2022-08-11T02:50:32;21.40;48.70
15384;DHT22;7790;53.022;12.968;2022-08-11T02:54:43;21.30;48.60
15384;DHT22;7790;53.022;12.968;2022-08-11T02:59:14;21.30;48.50
15384;DHT22;7790;53.022;12.968;2022-08-11T03:03:47;21.30;48.50
15384;DHT22;7790;53.022;12.968;2022-08-11T03:12:35;21.20;48.60
15384;DHT22;7790;53.022;12.968;2022-08-11T03:17:21;21.20;48.70
15384;DHT22;7790;53.022;12.968;2022-08-11T03:21:34;21.20;48.40
15384;DHT22;7790;53.022;12.968;2022-08-11T03:30:15;21.20;48.50
15384;DHT22;7790;53.022;12.968;2022-08-11T03:34:28;21.10;48.60
15384;DHT22;7790;53.022;12.968;2022-08-11T03:38:44;21.10;48.80
15384;DHT22;7790;53.022;12.968;2022-08-11T03:42:56;21.10;48.70
15384;DHT22;7790;53.022;12.968;2022-08-11T03:51:26;21.00;48.70
15384;DHT22;7790;53.022;12.968;2022-08-11T04:09:23;21.00;48.50
15384;DHT22;7790;53.022;12.968;2022-08-11T04:49:57;20.80;49.70
15384;DHT22;7790;53.022;12.968;2022-08-11T04:54:23;20.80;49.70
15384;DHT22;7790;53.022;12.968;2022-08-11T04:58:54;20.80;49.90
15384;DHT22;7790;53.022;12.968;2022-08-11T05:16:09;20.90;50.50
15384;DHT22;7790;53.022;12.968;2022-08-11T05:20:29;20.80;50.40
15384;DHT22;7790;53.022;12.968;2022-08-11T05:25:10;20.90;50.70
15384;DHT22;7790;53.022;12.968;2022-08-11T05:29:47;20.80;51.00
15384;DHT22;7790;53.022;12.968;2022-08-11T05:34:12;20.90;50.90
15384;DHT22;7790;53.022;12.968;2022-08-11T05:38:35;20.90;51.10
15384;DHT22;7790;53.022;12.968;2022-08-11T05:43:00;20.90;51.10
15384;DHT22;7790;53.022;12.968;2022-08-11T05:47:24;20.90;50.80
15384;DHT22;7790;53.022;12.968;2022-08-11T05:51:44;20.90;51.00
15384;DHT22;7790;53.022;12.968;2022-08-11T05:56:05;21.00;50.90
15384;DHT22;7790;53.022;12.968;2022-08-11T06:00:21;21.00;50.90
15384;DHT22;7790;53.022;12.968;2022-08-11T06:04:24;21.00;50.70
15384;DHT22;7790;53.022;12.968;2022-08-11T06:08:29;21.10;50.60
15384;DHT22;7790;53.022;12.968;2022-08-11T06:12:33;21.00;50.60
15384;DHT22;7790;53.022;12.968;2022-08-11T06:16:37;21.10;50.50
15384;DHT22;7790;53.022;12.968;2022-08-11T06:20:51;21.00;50.70
15384;DHT22;7790;53.022;12.968;2022-08-11T06:24:59;21.00;50.80
15384;DHT22;7790;53.022;12.968;2022-08-11T06:29:00;21.00;50.40
15384;DHT22;7790;53.022;12.968;2022-08-11T06:33:06;21.10;50.70
15384;DHT22;7790;53.022;12.968;2022-08-11T06:41:58;21.20;50.80
15384;DHT22;7790;53.022;12.968;2022-08-11T06:46:22;21.20;50.50
15384;DHT22;7790;53.022;12.968;2022-08-11T06:50:24;21.30;50.70
15384;DHT22;7790;53.022;12.968;2022-08-11T06:54:50;21.30;50.70
15384;DHT22;7790;53.022;12.968;2022-08-11T06:58:56;21.40;50.70
15384;DHT22;7790;53.022;12.968;2022-08-11T07:03:18;21.60;50.40
15384;DHT22;7790;53.022;12.968;2022-08-11T07:12:21;21.50;50.80
15384;DHT22;7790;53.022;12.968;2022-08-11T07:16:49;21.50;50.70
15384;DHT22;7790;53.022;12.968;2022-08-11T07:20:52;21.50;50.60
15384;DHT22;7790;53.022;12.968;2022-08-11T07:25:14;21.50;50.50
15384;DHT22;7790;53.022;12.968;2022-08-11T07:29:35;21.60;50.50
15384;DHT22;7790;53.022;12.968;2022-08-11T07:33:51;21.60;50.40
15384;DHT22;7790;53.022;12.968;2022-08-11T07:37:58;21.60;50.20
15384;DHT22;7790;53.022;12.968;2022-08-11T07:42:06;21.70;50.20
15384;DHT22;7790;53.022;12.968;2022-08-11T07:46:10;21.70;50.20
15384;DHT22;7790;53.022;12.968;2022-08-11T07:50:30;21.70;49.90
15384;DHT22;7790;53.022;12.968;2022-08-11T07:54:50;21.80;50.00
15384;DHT22;7790;53.022;12.968;2022-08-11T07:58:51;21.80;50.00
15384;DHT22;7790;53.022;12.968;2022-08-11T08:03:11;21.80;50.10
15384;DHT22;7790;53.022;12.968;2022-08-11T08:07:31;21.90;50.20
15384;DHT22;7790;53.022;12.968;2022-08-11T08:11:50;21.90;50.20
15384;DHT22;7790;53.022;12.968;2022-08-11T08:16:10;22.00;50.20
15384;DHT22;7790;53.022;12.968;2022-08-11T08:20:34;22.00;50.20
15384;DHT22;7790;53.022;12.968;2022-08-11T08:24:38;22.00;50.20
15384;DHT22;7790;53.022;12.968;2022-08-11T08:28:39;22.10;50.10
15384;DHT22;7790;53.022;12.968;2022-08-11T08:32:41;22.10;50.10
15384;DHT22;7790;53.022;12.968;2022-08-11T08:36:48;22.10;50.00
15384;DHT22;7790;53.022;12.968;2022-08-11T08:40:51;22.10;49.90
15384;DHT22;7790;53.022;12.968;2022-08-11T08:44:57;22.20;50.00
15384;DHT22;7790;53.022;12.968;2022-08-11T08:49:01;22.20;50.10
15384;DHT22;7790;53.022;12.968;2022-08-11T08:53:04;22.20;49.80
15384;DHT22;7790;53.022;12.968;2022-08-11T08:57:07;22.30;50.30
15384;DHT22;7790;53.022;12.968;2022-08-11T09:01:09;22.30;49.70
15384;DHT22;7790;53.022;12.968;2022-08-11T09:05:11;22.40;49.70
15384;DHT22;7790;53.022;12.968;2022-08-11T09:09:13;22.40;50.10
15384;DHT22;7790;53.022;12.968;2022-08-11T09:13:14;22.40;49.50
15384;DHT22;7790;53.022;12.968;2022-08-11T09:17:19;22.40;49.40
15384;DHT22;7790;53.022;12.968;2022-08-11T09:21:21;22.50;49.40
15384;DHT22;7790;53.022;12.968;2022-08-11T09:25:25;22.50;49.40
15384;DHT22;7790;53.022;12.968;2022-08-11T09:29:45;22.50;49.20
15384;DHT22;7790;53.022;12.968;2022-08-11T09:33:47;22.50;49.20
15384;DHT22;7790;53.022;12.968;2022-08-11T09:37:51;22.60;49.30
15384;DHT22;7790;53.022;12.968;2022-08-11T09:42:11;22.60;49.20
15384;DHT22;7790;53.022;12.968;2022-08-11T09:46:13;22.60;49.50
15384;DHT22;7790;53.022;12.968;2022-08-11T09:50:15;22.60;49.00
15384;DHT22;7790;53.022;12.968;2022-08-11T09:54:18;22.70;49.00
15384;DHT22;7790;53.022;12.968;2022-08-11T09:58:19;22.70;48.90
15384;DHT22;7790;53.022;12.968;2022-08-11T10:02:25;22.70;49.30
15384;DHT22;7790;53.022;12.968;2022-08-11T10:06:28;22.70;48.70
15384;DHT22;7790;53.022;12.968;2022-08-11T10:10:49;22.80;48.60
15384;DHT22;7790;53.022;12.968;2022-08-11T10:14:56;22.80;48.50
15384;DHT22;7790;53.022;12.968;2022-08-11T10:19:18;22.80;48.30
15384;DHT22;7790;53.022;12.968;2022-08-11T10:23:21;22.90;48.20
15384;DHT22;7790;53.022;12.968;2022-08-11T10:27:42;22.90;48.10
15384;DHT22;7790;53.022;12.968;2022-08-11T10:31:44;22.90;48.20
15384;DHT22;7790;53.022;12.968;2022-08-11T10:36:06;22.90;48.10
15384;DHT22;7790;53.022;12.968;2022-08-11T10:40:09;23.00;48.10
15384;DHT22;7790;53.022;12.968;2022-08-11T10:44:13;23.00;47.90
15384;DHT22;7790;53.022;12.968;2022-08-11T10:48:15;23.00;47.90
15384;DHT22;7790;53.022;12.968;2022-08-11T10:52:20;23.00;47.80
15384;DHT22;7790;53.022;12.968;2022-08-11T10:56:40;23.00;47.80
15384;DHT22;7790;53.022;12.968;2022-08-11T11:01:00;23.00;47.90
15384;DHT22;7790;53.022;12.968;2022-08-11T11:09:40;23.10;47.70
15384;DHT22;7790;53.022;12.968;2022-08-11T11:13:44;23.10;47.70
15384;DHT22;7790;53.022;12.968;2022-08-11T11:22:25;23.10;47.50
15384;DHT22;7790;53.022;12.968;2022-08-11T11:26:42;23.10;47.50
15384;DHT22;7790;53.022;12.968;2022-08-11T11:35:24;23.20;47.30
15384;DHT22;7790;53.022;12.968;2022-08-11T11:39:27;23.20;46.90
15384;DHT22;7790;53.022;12.968;2022-08-11T11:43:29;23.20;46.90
15384;DHT22;7790;53.022;12.968;2022-08-11T11:47:33;23.20;46.60
15384;DHT22;7790;53.022;12.968;2022-08-11T11:51:36;23.30;46.60
15384;DHT22;7790;53.022;12.968;2022-08-11T11:55:37;23.30;46.70
15384;DHT22;7790;53.022;12.968;2022-08-11T11:59:38;23.30;46.50
15384;DHT22;7790;53.022;12.968;2022-08-11T12:03:58;23.30;46.50
15384;DHT22;7790;53.022;12.968;2022-08-11T12:08:01;23.30;46.40
15384;DHT22;7790;53.022;12.968;2022-08-11T12:12:17;23.30;46.60
15384;DHT22;7790;53.022;12.968;2022-08-11T12:16:42;23.30;46.40
15384;DHT22;7790;53.022;12.968;2022-08-11T12:20:44;23.30;46.30
15384;DHT22;7790;53.022;12.968;2022-08-11T12:24:46;23.30;46.10
15384;DHT22;7790;53.022;12.968;2022-08-11T12:29:07;23.40;45.90
15384;DHT22;7790;53.022;12.968;2022-08-11T12:33:10;23.30;45.70
15384;DHT22;7790;53.022;12.968;2022-08-11T12:37:13;23.40;45.60
15384;DHT22;7790;53.022;12.968;2022-08-11T12:41:16;23.40;45.50
15384;DHT22;7790;53.022;12.968;2022-08-11T12:45:37;23.40;45.30
15384;DHT22;7790;53.022;12.968;2022-08-11T12:49:44;23.40;45.20
15384;DHT22;7790;53.022;12.968;2022-08-11T12:54:11;23.40;45.30
15384;DHT22;7790;53.022;12.968;2022-08-11T12:58:14;23.50;44.60
15384;DHT22;7790;53.022;12.968;2022-08-11T13:02:20;23.50;44.40
15384;DHT22;7790;53.022;12.968;2022-08-11T13:06:41;23.50;44.40
15384;DHT22;7790;53.022;12.968;2022-08-11T13:10:43;23.50;44.50
15384;DHT22;7790;53.022;12.968;2022-08-11T13:15:04;23.50;44.50
15384;DHT22;7790;53.022;12.968;2022-08-11T13:19:06;23.50;45.00
15384;DHT22;7790;53.022;12.968;2022-08-11T13:23:07;23.50;44.90
15384;DHT22;7790;53.022;12.968;2022-08-11T13:27:08;23.50;44.60
15384;DHT22;7790;53.022;12.968;2022-08-11T13:31:11;23.50;44.90
15384;DHT22;7790;53.022;12.968;2022-08-11T13:35:15;23.50;45.00
15384;DHT22;7790;53.022;12.968;2022-08-11T13:39:17;23.50;45.10
15384;DHT22;7790;53.022;12.968;2022-08-11T13:43:20;23.40;45.30
15384;DHT22;7790;53.022;12.968;2022-08-11T13:47:22;23.50;45.40
15384;DHT22;7790;53.022;12.968;2022-08-11T13:51:25;23.50;45.40
15384;DHT22;7790;53.022;12.968;2022-08-11T13:55:33;23.50;46.00
15384;DHT22;7790;53.022;12.968;2022-08-11T13:59:35;23.50;45.60
15384;DHT22;7790;53.022;12.968;2022-08-11T14:03:39;23.50;45.60
15384;DHT22;7790;53.022;12.968;2022-08-11T14:07:58;23.40;45.70
15384;DHT22;7790;53.022;12.968;2022-08-11T14:12:01;23.40;46.00
15384;DHT22;7790;53.022;12.968;2022-08-11T14:16:27;23.40;46.00
15384;DHT22;7790;53.022;12.968;2022-08-11T14:20:36;23.40;46.30
15384;DHT22;7790;53.022;12.968;2022-08-11T14:24:57;23.40;46.40
15384;DHT22;7790;53.022;12.968;2022-08-11T14:29:11;23.40;46.60
15384;DHT22;7790;53.022;12.968;2022-08-11T14:33:14;23.40;47.00
15384;DHT22;7790;53.022;12.968;2022-08-11T14:37:20;23.40;47.10
15384;DHT22;7790;53.022;12.968;2022-08-11T14:41:22;23.40;47.10
15384;DHT22;7790;53.022;12.968;2022-08-11T14:45:44;23.40;47.20
15384;DHT22;7790;53.022;12.968;2022-08-11T14:50:05;23.40;47.30
15384;DHT22;7790;53.022;12.968;2022-08-11T14:54:08;23.40;47.80
15384;DHT22;7790;53.022;12.968;2022-08-11T14:58:29;23.30;47.40
15384;DHT22;7790;53.022;12.968;2022-08-11T15:02:30;23.40;47.50
15384;DHT22;7790;53.022;12.968;2022-08-11T15:06:50;23.40;47.50
15384;DHT22;7790;53.022;12.968;2022-08-11T15:10:51;23.40;47.60
15384;DHT22;7790;53.022;12.968;2022-08-11T15:14:53;23.50;47.90
15384;DHT22;7790;53.022;12.968;2022-08-11T15:19:13;23.50;47.80
15384;DHT22;7790;53.022;12.968;2022-08-11T15:23:15;23.50;48.30
15384;DHT22;7790;53.022;12.968;2022-08-11T15:27:36;23.50;48.30
15384;DHT22;7790;53.022;12.968;2022-08-11T15:31:56;23.60;48.50
15384;DHT22;7790;53.022;12.968;2022-08-11T15:36:18;23.60;48.70
15384;DHT22;7790;53.022;12.968;2022-08-11T15:40:39;23.70;48.70
15384;DHT22;7790;53.022;12.968;2022-08-11T15:45:03;23.70;49.10
15384;DHT22;7790;53.022;12.968;2022-08-11T15:49:31;23.70;49.20
15384;DHT22;7790;53.022;12.968;2022-08-11T15:53:44;23.80;49.50
15384;DHT22;7790;53.022;12.968;2022-08-11T15:57:48;23.80;49.60
15384;DHT22;7790;53.022;12.968;2022-08-11T16:02:12;23.80;49.50
15384;DHT22;7790;53.022;12.968;2022-08-11T16:06:32;23.80;49.40
15384;DHT22;7790;53.022;12.968;2022-08-11T16:10:35;23.80;49.50
15384;DHT22;7790;53.022;12.968;2022-08-11T16:14:45;23.80;49.50
15384;DHT22;7790;53.022;12.968;2022-08-11T16:19:05;23.90;49.40
15384;DHT22;7790;53.022;12.968;2022-08-11T16:23:12;23.90;49.60
15384;DHT22;7790;53.022;12.968;2022-08-11T16:27:15;23.90;49.50
15384;DHT22;7790;53.022;12.968;2022-08-11T16:31:20;23.90;49.50
15384;DHT22;7790;53.022;12.968;2022-08-11T16:35:23;24.00;49.50
15384;DHT22;7790;53.022;12.968;2022-08-11T16:39:43;24.00;49.60
15384;DHT22;7790;53.022;12.968;2022-08-11T16:43:45;24.00;49.60
15384;DHT22;7790;53.022;12.968;2022-08-11T16:48:07;24.00;49.70
15384;DHT22;7790;53.022;12.968;2022-08-11T16:52:08;24.00;49.60
15384;DHT22;7790;53.022;12.968;2022-08-11T16:56:18;24.00;49.70
15384;DHT22;7790;53.022;12.968;2022-08-11T17:00:20;24.00;49.80
15384;DHT22;7790;53.022;12.968;2022-08-11T17:04:30;24.10;49.90
15384;DHT22;7790;53.022;12.968;2022-08-11T17:08:52;24.00;49.70
15384;DHT22;7790;53.022;12.968;2022-08-11T17:13:13;24.00;49.70
15384;DHT22;7790;53.022;12.968;2022-08-11T17:17:25;24.00;49.70
15384;DHT22;7790;53.022;12.968;2022-08-11T17:21:40;24.00;49.80
15384;DHT22;7790;53.022;12.968;2022-08-11T17:26:01;24.10;49.90
15384;DHT22;7790;53.022;12.968;2022-08-11T17:30:07;24.00;50.10
15384;DHT22;7790;53.022;12.968;2022-08-11T17:34:08;24.10;49.90
15384;DHT22;7790;53.022;12.968;2022-08-11T17:38:28;24.00;50.00
15384;DHT22;7790;53.022;12.968;2022-08-11T17:42:31;24.00;49.90
15384;DHT22;7790;53.022;12.968;2022-08-11T17:46:51;24.10;49.90
15384;DHT22;7790;53.022;12.968;2022-08-11T17:51:14;24.10;49.90
15384;DHT22;7790;53.022;12.968;2022-08-11T17:55:37;24.00;49.90
15384;DHT22;7790;53.022;12.968;2022-08-11T17:59:58;24.00;49.70
15384;DHT22;7790;53.022;12.968;2022-08-11T18:04:03;24.00;49.60
15384;DHT22;7790;53.022;12.968;2022-08-11T18:08:07;24.00;49.70
15384;DHT22;7790;53.022;12.968;2022-08-11T18:12:26;24.00;49.70
15384;DHT22;7790;53.022;12.968;2022-08-11T18:16:45;24.00;47.90
15384;DHT22;7790;53.022;12.968;2022-08-11T18:21:05;24.00;46.70
15384;DHT22;7790;53.022;12.968;2022-08-11T18:25:34;24.00;47.40
15384;DHT22;7790;53.022;12.968;2022-08-11T18:29:59;24.00;46.60
15384;DHT22;7790;53.022;12.968;2022-08-11T18:34:24;24.00;46.70
15384;DHT22;7790;53.022;12.968;2022-08-11T18:38:47;24.00;46.60
15384;DHT22;7790;53.022;12.968;2022-08-11T18:43:10;24.00;46.30
15384;DHT22;7790;53.022;12.968;2022-08-11T18:47:31;23.90;46.30
15384;DHT22;7790;53.022;12.968;2022-08-11T18:51:53;23.90;46.00
15384;DHT22;7790;53.022;12.968;2022-08-11T18:56:14;23.90;46.00
15384;DHT22;7790;53.022;12.968;2022-08-11T19:00:35;23.90;45.70
15384;DHT22;7790;53.022;12.968;2022-08-11T19:04:57;23.90;46.20
15384;DHT22;7790;53.022;12.968;2022-08-11T19:09:18;23.90;46.30
15384;DHT22;7790;53.022;12.968;2022-08-11T19:13:38;23.90;46.80
15384;DHT22;7790;53.022;12.968;2022-08-11T19:17:59;23.90;46.30
15384;DHT22;7790;53.022;12.968;2022-08-11T19:22:21;23.90;46.50
15384;DHT22;7790;53.022;12.968;2022-08-11T19:26:42;23.90;47.50
15384;DHT22;7790;53.022;12.968;2022-08-11T19:31:02;23.80;48.10
15384;DHT22;7790;53.022;12.968;2022-08-11T19:35:23;23.90;47.90
15384;DHT22;7790;53.022;12.968;2022-08-11T19:39:43;23.80;47.40
15384;DHT22;7790;53.022;12.968;2022-08-11T19:44:03;23.80;46.90
15384;DHT22;7790;53.022;12.968;2022-08-11T19:48:25;23.80;47.30
15384;DHT22;7790;53.022;12.968;2022-08-11T19:52:45;23.80;47.30
15384;DHT22;7790;53.022;12.968;2022-08-11T19:57:05;23.80;47.20
15384;DHT22;7790;53.022;12.968;2022-08-11T20:01:24;23.80;46.90
15384;DHT22;7790;53.022;12.968;2022-08-11T20:05:45;23.80;46.80
15384;DHT22;7790;53.022;12.968;2022-08-11T20:10:06;23.70;47.80
15384;DHT22;7790;53.022;12.968;2022-08-11T20:14:30;23.80;46.10
15384;DHT22;7790;53.022;12.968;2022-08-11T20:18:51;23.80;46.20
15384;DHT22;7790;53.022;12.968;2022-08-11T20:23:13;23.80;45.80
15384;DHT22;7790;53.022;12.968;2022-08-11T20:27:36;23.70;45.60
15384;DHT22;7790;53.022;12.968;2022-08-11T20:31:56;23.70;45.70
15384;DHT22;7790;53.022;12.968;2022-08-11T20:36:16;23.80;45.70
15384;DHT22;7790;53.022;12.968;2022-08-11T20:40:35;23.70;46.80
15384;DHT22;7790;53.022;12.968;2022-08-11T20:44:56;23.80;46.70
15384;DHT22;7790;53.022;12.968;2022-08-11T20:49:16;23.70;47.40
15384;DHT22;7790;53.022;12.968;2022-08-11T20:53:41;23.80;47.00
15384;DHT22;7790;53.022;12.968;2022-08-11T20:58:01;23.70;47.20
15384;DHT22;7790;53.022;12.968;2022-08-11T21:02:24;23.70;47.30
15384;DHT22;7790;53.022;12.968;2022-08-11T21:06:45;23.70;47.40
15384;DHT22;7790;53.022;12.968;2022-08-11T21:11:05;23.70;46.70
15384;DHT22;7790;53.022;12.968;2022-08-11T21:15:28;23.60;47.30
15384;DHT22;7790;53.022;12.968;2022-08-11T21:19:52;23.60;46.80
15384;DHT22;7790;53.022;12.968;2022-08-11T21:24:13;23.60;46.50
15384;DHT22;7790;53.022;12.968;2022-08-11T21:28:34;23.50;46.10
15384;DHT22;7790;53.022;12.968;2022-08-11T21:32:55;23.50;46.40
15384;DHT22;7790;53.022;12.968;2022-08-11T21:37:15;23.50;46.60
15384;DHT22;7790;53.022;12.968;2022-08-11T21:41:36;23.50;46.50
15384;DHT22;7790;53.022;12.968;2022-08-11T21:45:58;23.50;46.60
15384;DHT22;7790;53.022;12.968;2022-08-11T21:50:18;23.40;46.40
15384;DHT22;7790;53.022;12.968;2022-08-11T21:54:38;23.40;46.30
15384;DHT22;7790;53.022;12.968;2022-08-11T21:58:59;23.40;46.40
15384;DHT22;7790;53.022;12.968;2022-08-11T22:03:20;23.40;46.30
15384;DHT22;7790;53.022;12.968;2022-08-11T22:07:39;23.30;46.20
15384;DHT22;7790;53.022;12.968;2022-08-11T22:11:59;23.30;46.30
15384;DHT22;7790;53.022;12.968;2022-08-11T22:16:18;23.20;46.40
15384;DHT22;7790;53.022;12.968;2022-08-11T22:20:39;23.20;46.40
15384;DHT22;7790;53.022;12.968;2022-08-11T22:25:02;23.20;46.40
15384;DHT22;7790;53.022;12.968;2022-08-11T22:29:21;23.20;46.40
15384;DHT22;7790;53.022;12.968;2022-08-11T22:33:41;23.20;46.20
15384;DHT22;7790;53.022;12.968;2022-08-11T22:38:01;23.20;46.30
15384;DHT22;7790;53.022;12.968;2022-08-11T22:42:21;23.10;46.50
15384;DHT22;7790;53.022;12.968;2022-08-11T22:46:40;23.10;46.60
15384;DHT22;7790;53.022;12.968;2022-08-11T22:51:00;23.10;46.50
15384;DHT22;7790;53.022;12.968;2022-08-11T22:55:21;23.10;47.00
15384;DHT22;7790;53.022;12.968;2022-08-11T22:59:42;23.10;46.40
15384;DHT22;7790;53.022;12.968;2022-08-11T23:04:03;23.10;46.80
15384;DHT22;7790;53.022;12.968;2022-08-11T23:08:24;23.00;46.30
15384;DHT22;7790;53.022;12.968;2022-08-11T23:12:45;23.00;46.20
15384;DHT22;7790;53.022;12.968;2022-08-11T23:17:05;23.00;46.20
15384;DHT22;7790;53.022;12.968;2022-08-11T23:21:26;23.00;46.60
15384;DHT22;7790;53.022;12.968;2022-08-11T23:25:48;23.00;46.20
15384;DHT22;7790;53.022;12.968;2022-08-11T23:30:09;23.00;46.30
15384;DHT22;7790;53.022;12.968;2022-08-11T23:34:32;22.90;46.20
15384;DHT22;7790;53.022;12.968;2022-08-11T23:38:52;22.80;46.30
15384;DHT22;7790;53.022;12.968;2022-08-11T23:43:22;22.80;46.30
15384;DHT22;7790;53.022;12.968;2022-08-11T23:47:42;22.90;46.30
15384;DHT22;7790;53.022;12.968;2022-08-11T23:52:03;22.80;46.20
15384;DHT22;7790;53.022;12.968;2022-08-11T23:56:23;22.80;46.00
